• Join FlightAware (Why Join?)
  • Login
  • US Flag 
Rudolph Flight #1: Arrived! 
05:13PM EST


 

Airport Tracker/Info


-or-


 

Live Flight TrackerFlight Track Log ✈ JBU917 ✈ 16-Apr-2013 ✈ KJFK - KORD

Flight Track Log - Related Links

Times and Time Zones

All times are in EDT time to prevent confusion due to time zone crossing. See the JBU917 flight status page for this flight to view local times or setup timezone preferences in your user account.

Time Position Orientation Groundspeed Altitude Reporting Facility
EDT Latitude Longitude Course Direction KTS MPH feet Rate Location/Type
04:00PM 40.6000 -73.7333 90° East 195 224 2,300  Level New York TRACON
04:01PM 40.6000 -73.6333 90° East 276 318 4,500 2,460 Climbing New York TRACON
04:02PM 40.6500 -73.5667 45° Northeast 307 353 7,500 3,060 Climbing New York TRACON
04:03PM 40.7167 -73.4833 43° Northeast 303 349 10,700 2,160 Climbing New York TRACON
04:04PM 40.7833 -73.5167 339° North 319 367 11,700 1,860 Climbing New York TRACON
04:05PM 40.8500 -73.6000 317° Northwest 324 373 14,300 1,680 Climbing New York TRACON
04:07PM 40.9647 -73.7883 309° West 349 402 17,000 840 Climbing New York Center
04:08PM 40.9989 -73.9136 290° West 337 388 17,000  Level New York Center
04:09PM 41.0189 -74.0217 284° West 337 388 17,000  Level New York Center
04:10PM 41.0422 -74.1550 283° West 337 388 17,000 -60 Level New York Center
04:11PM 41.0617 -74.2769 282° West 337 388 16,900 -60 Descending New York Center
04:12PM 41.0814 -74.3797 284° West 337 388 16,900  Level New York Center
04:13PM 41.1044 -74.5078 283° West 337 388 16,900 900 Level New York Center
04:14PM 41.1217 -74.6189 282° West 337 388 18,800 1,860 Climbing New York Center
04:15PM 41.1592 -74.7450 292° West 337 388 20,700 1,740 Climbing New York Center
04:16PM 41.2117 -74.8611 301° West 348 400 22,300 1,620 Climbing New York Center
04:17PM 41.2575 -74.9742 298° West 375 432 24,100 1,560 Climbing New York Center
04:18PM 41.3075 -75.0933 299° West 380 437 25,500 1,380 Climbing New York Center
04:19PM 41.3611 -75.2156 300° West 380 437 26,900 1,260 Climbing New York Center
04:20PM 41.4169 -75.3411 301° West 385 443 28,100 1,320 Climbing New York Center
04:21PM 41.4681 -75.4664 299° West 385 443 29,600 1,380 Climbing New York Center
04:22PM 41.5086 -75.6022 292° West 385 443 31,000 1,380 Climbing New York Center
04:23PM 41.5469 -75.7325 291° West 385 443 32,400 1,320 Climbing New York Center
04:24PM 41.5831 -75.8600 291° West 380 437 33,700 780 Climbing New York Center
04:25PM 41.6192 -75.9875 291° West 375 432 34,000 120 Climbing New York Center
04:26PM 41.6569 -76.1211 291° West 375 432 34,000  Level New York Center
04:27PM 41.7003 -76.2689 291° West 381 438 34,000  Level New York Center
04:28PM 41.7356 -76.4025 290° West 381 438 34,000  Level New York Center
04:29PM 41.7694 -76.5222 291° West 381 438 34,000  Level New York Center
04:30PM 41.8067 -76.6561 290° West 381 438 34,000  Level New York Center
04:33PM 41.9025 -77.0119 290° West 382 440 34,000  Level Cleveland Center
04:34PM 41.9397 -77.1439 291° West 382 440 34,000  Level Cleveland Center
04:35PM 41.9772 -77.2814 290° West 382 440 34,000  Level Cleveland Center
04:36PM 42.0144 -77.4222 290° West 388 447 34,000  Level Cleveland Center
04:37PM 42.0469 -77.5436 290° West 388 447 34,000  Level Cleveland Center
04:38PM 42.0839 -77.6817 290° West 388 447 34,000  Level Cleveland Center
04:39PM 42.1206 -77.8200 290° West 388 447 34,000  Level Cleveland Center
04:40PM 42.1572 -77.9558 290° West 393 452 34,000  Level Cleveland Center
04:41PM 42.1936 -78.0917 290° West 388 447 34,000  Level Cleveland Center
04:42PM 42.2278 -78.2306 288° West 388 447 34,000  Level Cleveland Center
04:43PM 42.2619 -78.3694 288° West 388 447 34,000  Level Cleveland Center
04:44PM 42.2978 -78.5058 290° West 388 447 34,000  Level Cleveland Center
04:45PM 42.3356 -78.6450 290° West 388 447 34,000  Level Cleveland Center
04:46PM 42.3692 -78.7875 288° West 393 452 34,000  Level Cleveland Center
04:47PM 42.4069 -78.9411 288° West 393 452 34,000  Level Cleveland Center
04:48PM 42.4419 -79.0778 289° West 393 452 34,000  Level Cleveland Center
04:49PM 42.4728 -79.2039 288° West 393 452 34,000  Level Cleveland Center
04:50PM 42.4972 -79.3386 284° West 387 445 34,000  Level Cleveland Center
04:51PM 42.5028 -79.4819 273° West 382 440 34,000  Level Cleveland Center
04:52PM 42.5083 -79.6228 273° West 382 440 34,000  Level Cleveland Center
04:53PM 42.5156 -79.7664 274° West 382 440 34,000  Level Cleveland Center
04:54PM 42.5228 -79.9042 274° West 382 440 34,000  Level Cleveland Center
04:55PM 42.5256 -80.0450 272° West 382 440 34,000  Level Cleveland Center
04:56PM 42.5306 -80.1972 273° West 376 433 34,000  Level Cleveland Center
04:57PM 42.5392 -80.3325 275° West 371 427 34,000  Level Cleveland Center
04:58PM 42.5456 -80.4706 274° West 365 420 34,000  Level Cleveland Center
04:59PM 42.5497 -80.6058 272° West 371 427 34,000  Level Cleveland Center
05:00PM 42.5539 -80.7439 272° West 364 419 34,000  Level Cleveland Center
05:01PM 42.5597 -80.8819 273° West 364 419 34,000  Level Cleveland Center
05:02PM 42.5636 -81.0200 272° West 364 419 34,000  Level Cleveland Center
05:03PM 42.5714 -81.1556 275° West 364 419 34,000  Level Cleveland Center
05:04PM 42.5747 -81.2936 272° West 364 419 34,000  Level Cleveland Center
05:05PM 42.5800 -81.4261 273° West 364 419 34,000  Level Cleveland Center
05:06PM 42.6019 -81.5619 282° West 369 425 34,000  Level Cleveland Center
05:07PM 42.6217 -81.6808 283° West 369 425 34,000  Level Cleveland Center
05:08PM 42.6494 -81.8308 284° West 374 430 34,000  Level Cleveland Center
05:09PM 42.6728 -81.9669 283° West 374 430 34,000  Level Cleveland Center
05:10PM 42.6961 -82.1031 283° West 374 430 34,000  Level Cleveland Center
05:11PM 42.7172 -82.2336 282° West 374 430 34,000  Level Cleveland Center
05:12PM 42.7403 -82.3697 283° West 374 430 34,000  Level Cleveland Center
05:13PM 42.7631 -82.5061 283° West 374 430 34,000  Level Cleveland Center
05:14PM 42.7878 -82.6428 284° West 374 430 34,000  Level Cleveland Center
05:15PM 42.8103 -82.7822 282° West 374 430 34,000  Level Cleveland Center
05:16PM 42.8158 -82.9183 273° West 374 430 34,000  Level Cleveland Center
05:17PM 42.8214 -83.0572 273° West 368 423 34,000  Level Cleveland Center
05:18PM 42.8286 -83.1961 274° West 368 423 34,000  Level Cleveland Center
05:19PM 42.8358 -83.3353 274° West 368 423 34,000  Level Cleveland Center
05:20PM 42.8408 -83.4714 273° West 368 423 34,000  Level Cleveland Center
05:21PM 42.8458 -83.5992 273° West 368 423 34,000  Level Cleveland Center
05:22PM 42.8525 -83.7383 274° West 368 423 34,000  Level Cleveland Center
05:23PM 42.8572 -83.8744 273° West 368 423 34,000  Level Cleveland Center
05:24PM 42.8636 -84.0108 274° West 368 423 34,000  Level Cleveland Center
05:26PM 42.8742 -84.2981 273° West 365 420 34,000 -300 Level Chicago Center
05:27PM 42.8794 -84.4636 273° West 365 420 33,200 -1,020 Descending Chicago Center
05:28PM 42.8819 -84.6019 271° West 366 421 32,000 -600 Descending Chicago Center
05:29PM 42.8675 -84.7392 262° West 368 423 32,000  Level Chicago Center
05:30PM 42.8536 -84.8761 262° West 366 421 32,000  Level Chicago Center
05:31PM 42.8394 -85.0139 262° West 367 422 32,000  Level Chicago Center
05:32PM 42.8244 -85.1539 262° West 374 430 32,000 -180 Level Chicago Center
05:33PM 42.8067 -85.3208 262° West 372 428 31,700 -1,020 Descending Chicago Center
05:34PM 42.7900 -85.4611 261° West 373 429 30,000 -1,740 Descending Chicago Center
05:35PM 42.7675 -85.6014 258° West 377 434 28,200 -1,800 Descending Chicago Center
05:36PM 42.7425 -85.7417 256° West 379 436 26,400 -1,800 Descending Chicago Center
05:37PM 42.7175 -85.8781 256° West 374 430 24,600 -1,800 Descending Chicago Center
05:38PM 42.6931 -86.0119 256° West 366 421 22,800 -1,260 Descending Chicago Center
05:39PM 42.6692 -86.1433 256° West 360 414 22,000 -420 Descending Chicago Center
05:40PM 42.6450 -86.2742 256° West 356 410 22,000  Level Chicago Center
05:41PM 42.6153 -86.4300 256° West 357 411 22,000 -360 Level Chicago Center
05:42PM 42.5911 -86.5603 256° West 356 410 21,300 -1,260 Descending Chicago Center
05:43PM 42.5686 -86.6836 256° West 354 407 19,400 -1,800 Descending Chicago Center
05:45PM 42.5403 -86.8050 252° West 342 394 17,600 -1,920 Descending Chicago Center
05:46PM 42.5072 -86.9244 249° West 327 376 15,500 -2,040 Descending Chicago Center
05:47PM 42.4764 -87.0361 250° West 319 367 13,500 -2,040 Descending Chicago Center
05:48PM 42.4397 -87.1669 249° West 312 359 11,300 -1,740 Descending Chicago Center
05:49PM 42.4086 -87.2789 249° West 317 365 10,000 -660 Descending Chicago Center
05:50PM 42.3750 -87.4025 250° West 321 369 10,000  Level Chicago Center
05:51PM 42.3431 -87.5175 249° West 319 367 10,000  Level Chicago Center
05:52PM 42.2775 -87.6019 224° Southwest 333 383 10,000  Level Chicago Center
05:53PM 42.2053 -87.6756 217° Southwest 328 377 10,000 -60 Level Chicago Center
05:54PM 42.1356 -87.7497 218° Southwest 322 371 9,900 -180 Descending Chicago Center
05:54PM 42.1000 -87.8000 226° Southwest 284 327 9,800 -1,500 Descending Chicago TRACON
05:55PM 42.0833 -87.8833 255° West 254 292 7,800 -1,380 Descending Chicago TRACON
05:56PM 42.0667 -87.9833 257° West 255 293 7,000 -780 Descending Chicago TRACON
05:57PM 42.0500 -88.0667 255° West 213 245 6,200 -1,140 Descending Chicago TRACON
05:58PM 42.0500 -88.1333 270° West 215 247 4,900 -1,260 Descending Chicago TRACON
05:59PM 42.0475 -88.1825 266° West 217 250 4,100 -1,080 Descending Chicago Center
06:00PM 42.0069 -88.1656 163° South 213 245 3,000 -540 Descending Chicago Center
06:01PM 41.9764 -88.0936 120° Southeast 193 222 3,000 -120 Level Chicago Center
06:01PM 41.9667 -88.0833 142° Southeast 187 215 2,900 -900 Descending Chicago TRACON
06:02PM 41.9667 -88.0167 90° East 158 182 1,900 -900 Descending Chicago TRACON
06:03PM 41.9667 -87.9667 90° East 138 159 1,100 -840 Descending Chicago TRACON
06:06PM 41.9667 -87.9000 124° Southeast  Level FlightAware Approximate